Time;durP1;ratioP1;P1;durP2;ratioP2;P2;SDS_P1;SDS_P2;PMS_P1;PMS_P2;Temp;Humidity;BMP_temperature;BMP_pressure;BME280_temperature;BME280_humidity;BME280_pressure;Samples;Min_cycle;Max_cycle;Signal;HPM_P1;HPM_P2
2023/10/22 00:02:09;;;;;;;3.50;2.37;;;8.80;99.90;;;;;;5101516;28;20221;-46
2023/10/22 00:04:38;;;;;;;3.67;2.23;;;8.80;99.90;;;;;;5099260;28;20189;-47
2023/10/22 00:07:05;;;;;;;3.23;2.17;;;8.80;99.90;;;;;;5104449;28;20607;-50
2023/10/22 00:09:34;;;;;;;3.80;2.23;;;8.80;99.90;;;;;;5067671;27;20210;-47
2023/10/22 00:12:01;;;;;;;3.77;2.50;;;8.80;99.90;;;;;;5098774;28;20217;-46
2023/10/22 00:14:28;;;;;;;3.60;2.40;;;8.80;99.90;;;;;;5097997;28;20847;-50
2023/10/22 00:16:55;;;;;;;4.07;2.50;;;8.80;99.90;;;;;;5102186;28;20208;-44
2023/10/22 00:19:22;;;;;;;7.37;2.03;;;8.80;99.90;;;;;;5103791;28;20193;-47
2023/10/22 00:21:48;;;;;;;2.67;2.27;;;8.80;99.90;;;;;;5101209;28;20273;-52
2023/10/22 00:24:15;;;;;;;2.97;2.40;;;8.80;99.90;;;;;;5088668;28;20775;-43
2023/10/22 00:26:43;;;;;;;4.37;2.17;;;8.80;99.90;;;;;;5091230;28;20758;-47
2023/10/22 00:29:10;;;;;;;4.00;2.20;;;8.70;99.90;;;;;;5101492;28;20258;-46
2023/10/22 00:31:37;;;;;;;4.17;2.13;;;8.70;99.90;;;;;;5097760;28;20209;-46
2023/10/22 00:34:04;;;;;;;5.00;2.20;;;8.70;99.90;;;;;;5100643;28;20330;-49
2023/10/22 00:36:31;;;;;;;4.70;2.30;;;8.70;99.90;;;;;;5098346;28;20177;-48
2023/10/22 00:38:57;;;;;;;4.30;2.00;;;8.70;99.90;;;;;;5102222;28;20197;-47
2023/10/22 00:41:24;;;;;;;4.33;2.23;;;8.70;99.90;;;;;;5065825;28;20755;-46
2023/10/22 00:43:52;;;;;;;2.50;2.30;;;8.70;99.90;;;;;;5102096;28;20201;-51
2023/10/22 00:46:23;;;;;;;2.60;2.23;;;8.70;99.90;;;;;;5099777;28;20201;-48
2023/10/22 00:48:50;;;;;;;4.60;2.10;;;8.70;99.90;;;;;;5101920;28;20207;-49
2023/10/22 00:51:18;;;;;;;5.50;2.57;;;8.70;99.90;;;;;;5102639;28;20274;-44
2023/10/22 00:53:46;;;;;;;2.43;2.23;;;8.70;99.90;;;;;;5104760;27;20174;-50
2023/10/22 00:56:14;;;;;;;4.90;2.20;;;8.70;99.90;;;;;;5072362;28;20213;-45
2023/10/22 00:58:42;;;;;;;4.40;1.83;;;8.60;99.90;;;;;;5102635;28;20772;-48
2023/10/22 01:01:11;;;;;;;5.13;2.53;;;8.60;99.90;;;;;;5104124;28;20217;-45
2023/10/22 01:03:38;;;;;;;4.67;2.63;;;8.60;99.90;;;;;;5106236;27;20206;-50
2023/10/22 01:06:05;;;;;;;2.97;2.20;;;8.60;99.90;;;;;;5105590;28;20656;-48
2023/10/22 01:08:33;;;;;;;3.93;2.10;;;8.60;99.90;;;;;;5097875;28;21012;-49
2023/10/22 01:11:05;;;;;;;6.67;2.40;;;8.60;99.90;;;;;;5067897;27;20201;-47
2023/10/22 01:13:32;;;;;;;1.87;1.77;;;8.60;99.90;;;;;;5097180;28;20182;-47
2023/10/22 01:15:58;;;;;;;3.80;2.10;;;8.60;99.90;;;;;;5108575;27;20202;-50
2023/10/22 01:18:26;;;;;;;4.13;2.20;;;8.60;99.90;;;;;;5105239;27;20198;-46
2023/10/22 01:20:54;;;;;;;3.60;2.00;;;8.60;99.90;;;;;;5104203;28;20679;-48
2023/10/22 01:23:22;;;;;;;3.57;2.03;;;8.50;99.90;;;;;;5102796;28;20273;-43
2023/10/22 01:25:49;;;;;;;2.40;2.20;;;8.50;99.90;;;;;;5104546;28;20266;-49
2023/10/22 01:28:16;;;;;;;5.97;2.40;;;8.50;99.90;;;;;;5067592;28;20237;-47
2023/10/22 01:30:43;;;;;;;4.20;2.00;;;8.50;99.90;;;;;;5103508;28;20262;-47
2023/10/22 01:33:10;;;;;;;2.50;1.90;;;8.60;99.90;;;;;;5104949;28;20222;-45
2023/10/22 01:35:37;;;;;;;4.43;2.10;;;8.50;99.90;;;;;;5101952;28;20281;-48
2023/10/22 01:38:03;;;;;;;4.30;2.33;;;8.50;99.90;;;;;;5105086;28;20190;-48
2023/10/22 01:40:32;;;;;;;6.27;2.40;;;8.50;99.90;;;;;;5101312;28;20274;-48
2023/10/22 01:42:58;;;;;;;2.87;1.80;;;8.50;99.90;;;;;;5075250;28;20236;-46
2023/10/22 01:45:26;;;;;;;4.40;2.40;;;8.60;99.90;;;;;;5099821;28;20257;-47
2023/10/22 01:47:53;;;;;;;3.13;1.97;;;8.50;99.90;;;;;;5105078;28;20532;-52
2023/10/22 01:50:20;;;;;;;5.20;1.90;;;8.50;99.90;;;;;;5101195;28;20675;-46
2023/10/22 01:52:47;;;;;;;5.77;2.13;;;8.50;99.90;;;;;;5106610;27;20299;-48
2023/10/22 01:55:13;;;;;;;2.87;1.93;;;8.50;99.90;;;;;;5103450;28;20257;-43
2023/10/22 01:57:41;;;;;;;4.27;1.73;;;8.50;99.90;;;;;;5070943;28;20212;-46
2023/10/22 02:00:11;;;;;;;3.43;1.80;;;8.50;99.90;;;;;;5103658;28;20547;-48
2023/10/22 02:02:41;;;;;;;6.37;2.37;;;8.50;99.90;;;;;;5102685;28;21116;-47
2023/10/22 02:05:09;;;;;;;1.90;1.70;;;8.50;99.90;;;;;;5104001;28;20197;-48
2023/10/22 02:07:38;;;;;;;5.53;1.90;;;8.50;99.90;;;;;;5098725;28;20205;-46
2023/10/22 02:10:08;;;;;;;3.33;1.80;;;8.50;99.90;;;;;;5104451;28;20201;-49
2023/10/22 02:12:35;;;;;;;4.40;2.00;;;8.40;99.90;;;;;;5099529;27;20811;-51
2023/10/22 02:15:03;;;;;;;5.20;2.07;;;8.40;99.90;;;;;;5072095;27;20271;-49
2023/10/22 02:17:30;;;;;;;4.70;1.60;;;8.40;99.90;;;;;;5100374;28;20204;-49
2023/10/22 02:19:57;;;;;;;3.33;1.90;;;8.40;99.90;;;;;;5104494;28;20250;-47
2023/10/22 02:22:24;;;;;;;3.90;1.80;;;8.40;99.90;;;;;;5102696;27;20253;-47
2023/10/22 02:24:52;;;;;;;3.30;2.10;;;8.40;99.90;;;;;;5103057;27;20217;-48
2023/10/22 02:27:19;;;;;;;3.50;1.43;;;8.40;99.90;;;;;;5100078;28;20262;-48
2023/10/22 02:29:46;;;;;;;2.63;1.70;;;8.40;99.90;;;;;;5073198;27;21106;-48
2023/10/22 02:32:14;;;;;;;4.30;1.70;;;8.50;99.90;;;;;;5103246;28;20269;-47
2023/10/22 02:34:41;;;;;;;1.90;1.70;;;8.50;99.90;;;;;;5102645;27;20992;-47
2023/10/22 02:37:08;;;;;;;5.30;1.70;;;8.40;99.90;;;;;;5105100;27;20193;-48
2023/10/22 02:39:34;;;;;;;2.47;1.70;;;8.50;99.90;;;;;;5101932;27;20242;-47
2023/10/22 02:42:01;;;;;;;3.27;1.47;;;8.50;99.90;;;;;;5102382;28;20220;-49
2023/10/22 02:44:28;;;;;;;3.03;1.83;;;8.40;99.90;;;;;;5070033;27;21527;-48
2023/10/22 02:46:56;;;;;;;6.17;1.70;;;8.50;99.90;;;;;;5096924;28;20247;-48
2023/10/22 02:49:24;;;;;;;5.00;1.90;;;8.40;99.90;;;;;;5098825;28;20197;-48
2023/10/22 02:51:52;;;;;;;1.87;1.60;;;8.40;99.90;;;;;;5103061;28;20278;-45
2023/10/22 02:54:19;;;;;;;2.90;1.60;;;8.50;99.90;;;;;;5104800;27;20205;-48
2023/10/22 02:56:47;;;;;;;3.37;1.60;;;8.40;99.90;;;;;;5103166;27;20403;-50
2023/10/22 02:59:14;;;;;;;4.30;1.83;;;8.40;99.90;;;;;;5103711;27;20193;-46
2023/10/22 03:01:41;;;;;;;2.00;1.80;;;8.40;99.90;;;;;;5071210;27;20294;-50
2023/10/22 03:04:08;;;;;;;3.07;1.80;;;8.50;99.90;;;;;;5101679;28;20232;-49
2023/10/22 03:06:36;;;;;;;2.87;1.77;;;8.50;99.90;;;;;;5100454;27;20181;-49
2023/10/22 03:09:03;;;;;;;3.53;1.70;;;8.50;99.90;;;;;;5101929;28;20209;-50
2023/10/22 03:11:30;;;;;;;2.67;1.53;;;8.50;99.90;;;;;;5100724;27;20205;-49
2023/10/22 03:13:57;;;;;;;4.37;1.90;;;8.50;99.90;;;;;;5103352;28;20235;-48
2023/10/22 03:16:24;;;;;;;6.20;1.63;;;8.50;99.90;;;;;;5073694;27;20580;-43
2023/10/22 03:18:51;;;;;;;5.03;1.80;;;8.50;99.90;;;;;;5101538;28;20198;-46
2023/10/22 03:21:20;;;;;;;3.23;1.90;;;8.50;99.90;;;;;;5100652;28;20221;-45
2023/10/22 03:23:49;;;;;;;5.60;1.90;;;8.50;99.90;;;;;;5104373;27;21566;-48
2023/10/22 03:26:18;;;;;;;4.73;1.63;;;8.60;99.90;;;;;;5101104;28;20190;-45
2023/10/22 03:28:45;;;;;;;5.10;1.90;;;8.60;99.90;;;;;;5101432;28;20281;-48
2023/10/22 03:31:12;;;;;;;5.50;2.20;;;8.60;99.90;;;;;;5069594;28;20312;-44
2023/10/22 03:33:39;;;;;;;3.90;1.87;;;8.60;99.90;;;;;;5099006;28;20177;-48
2023/10/22 03:36:09;;;;;;;4.67;2.00;;;8.60;99.90;;;;;;5102768;28;20194;-49
2023/10/22 03:38:36;;;;;;;3.53;1.77;;;8.60;99.90;;;;;;5099276;28;21003;-51
2023/10/22 03:41:05;;;;;;;4.37;2.00;;;8.60;99.90;;;;;;5102814;28;20197;-47
2023/10/22 03:43:33;;;;;;;4.30;2.30;;;8.70;99.90;;;;;;5097869;28;20927;-50
2023/10/22 03:46:00;;;;;;;1.80;1.60;;;8.70;99.90;;;;;;5102599;28;20239;-49
2023/10/22 03:48:28;;;;;;;6.47;1.97;;;8.60;99.90;;;;;;5061070;28;20274;-48
2023/10/22 03:50:55;;;;;;;4.40;1.53;;;8.70;99.90;;;;;;5102305;28;20205;-49
2023/10/22 03:53:22;;;;;;;2.63;1.73;;;8.70;99.90;;;;;;5098264;28;20200;-45
2023/10/22 03:55:50;;;;;;;7.03;1.77;;;8.70;99.90;;;;;;5103887;27;20208;-48
2023/10/22 03:58:18;;;;;;;4.13;2.07;;;8.70;99.90;;;;;;5100458;28;20221;-47
2023/10/22 04:00:45;;;;;;;2.33;1.93;;;8.70;99.90;;;;;;5100950;28;20253;-49
2023/10/22 04:03:12;;;;;;;4.73;2.30;;;8.70;99.90;;;;;;5064637;28;20304;-46
2023/10/22 04:05:39;;;;;;;2.03;1.87;;;8.70;99.90;;;;;;5096593;28;20185;-50
2023/10/22 04:08:07;;;;;;;2.20;1.50;;;8.70;99.90;;;;;;5101564;28;20217;-50
2023/10/22 04:10:34;;;;;;;4.87;1.80;;;8.70;99.90;;;;;;5097810;28;20194;-53
2023/10/22 04:13:02;;;;;;;5.77;1.50;;;8.70;99.90;;;;;;5101291;28;21045;-46
2023/10/22 04:15:35;;;;;;;3.63;1.83;;;8.70;99.90;;;;;;5099935;27;20960;-49
2023/10/22 04:18:02;;;;;;;3.37;1.70;;;8.70;99.90;;;;;;5070716;28;20201;-51
2023/10/22 04:20:32;;;;;;;1.97;1.50;;;8.70;99.90;;;;;;5103384;28;20866;-48
2023/10/22 04:22:59;;;;;;;2.70;1.60;;;8.70;99.90;;;;;;5102315;28;20220;-47
2023/10/22 04:25:27;;;;;;;6.50;1.70;;;8.70;99.90;;;;;;5102107;28;20585;-46
2023/10/22 04:27:54;;;;;;;1.73;1.57;;;8.70;99.90;;;;;;5106223;27;20205;-48
2023/10/22 04:30:21;;;;;;;3.90;1.37;;;8.70;99.90;;;;;;5105866;27;20193;-45
2023/10/22 04:32:50;;;;;;;4.83;1.80;;;8.60;99.90;;;;;;5075753;27;20710;-49
2023/10/22 04:35:18;;;;;;;6.80;1.87;;;8.60;99.90;;;;;;5108378;27;20570;-47
2023/10/22 04:37:45;;;;;;;2.43;1.60;;;8.60;99.90;;;;;;5103817;28;20185;-51
2023/10/22 04:40:12;;;;;;;1.90;1.37;;;8.70;99.90;;;;;;5105336;27;20193;-47
2023/10/22 04:42:39;;;;;;;2.40;1.40;;;8.60;99.90;;;;;;5103727;27;20209;-48
2023/10/22 04:45:06;;;;;;;4.07;1.53;;;8.60;99.90;;;;;;5106241;27;20216;-48
2023/10/22 04:47:33;;;;;;;6.53;1.53;;;8.60;99.90;;;;;;5102576;27;20193;-47
2023/10/22 04:50:01;;;;;;;5.07;1.80;;;8.60;99.90;;;;;;5082100;27;20730;-47
2023/10/22 04:52:31;;;;;;;5.67;1.67;;;8.60;99.90;;;;;;5103760;27;20217;-45
2023/10/22 04:54:59;;;;;;;5.47;1.67;;;8.60;99.90;;;;;;5105177;27;20708;-44
2023/10/22 04:57:26;;;;;;;2.13;1.70;;;8.60;99.90;;;;;;5101972;27;20193;-44
2023/10/22 04:59:53;;;;;;;3.47;1.50;;;8.50;99.90;;;;;;5107272;27;20194;-51
2023/10/22 05:02:20;;;;;;;3.20;1.50;;;8.50;99.90;;;;;;5103997;27;20294;-46
2023/10/22 05:04:46;;;;;;;1.30;1.20;;;8.50;99.90;;;;;;5060310;28;20311;-46
2023/10/22 05:07:14;;;;;;;2.67;1.80;;;8.50;99.90;;;;;;5102018;28;20193;-47
2023/10/22 05:09:41;;;;;;;3.70;1.50;;;8.50;99.90;;;;;;5105803;28;20247;-49
2023/10/22 05:12:09;;;;;;;2.90;1.23;;;8.50;99.90;;;;;;5101088;28;20278;-48
2023/10/22 05:14:36;;;;;;;4.40;1.40;;;8.50;99.90;;;;;;5105626;28;20201;-49
2023/10/22 05:17:04;;;;;;;2.27;1.20;;;8.50;99.90;;;;;;5101936;28;20278;-47
2023/10/22 05:19:31;;;;;;;4.90;1.43;;;8.50;99.90;;;;;;5073415;27;20202;-50
2023/10/22 05:21:57;;;;;;;3.73;1.40;;;8.50;99.90;;;;;;5101370;28;20213;-46
2023/10/22 05:24:26;;;;;;;4.20;1.50;;;8.50;99.90;;;;;;5104957;27;20209;-49
2023/10/22 05:26:53;;;;;;;3.87;1.60;;;8.50;99.90;;;;;;5104852;27;20197;-45
2023/10/22 05:29:20;;;;;;;4.23;1.40;;;8.50;99.90;;;;;;5102793;28;20193;-46
2023/10/22 05:31:47;;;;;;;2.53;1.50;;;8.50;99.90;;;;;;5104951;28;20209;-45
2023/10/22 05:34:13;;;;;;;5.93;1.43;;;8.50;99.90;;;;;;5101025;28;20186;-45
2023/10/22 05:36:41;;;;;;;2.37;1.47;;;8.60;99.90;;;;;;5073134;27;20308;-47
2023/10/22 05:39:08;;;;;;;4.40;1.40;;;8.60;99.90;;;;;;5101103;28;20217;-50
2023/10/22 05:41:36;;;;;;;3.03;1.60;;;8.60;99.90;;;;;;5104819;28;20636;-48
2023/10/22 05:44:04;;;;;;;3.57;1.40;;;8.60;99.90;;;;;;5101443;28;20221;-44
2023/10/22 05:46:33;;;;;;;2.60;1.20;;;8.60;99.90;;;;;;5104588;27;20728;-51
2023/10/22 05:49:00;;;;;;;3.37;1.50;;;8.60;99.90;;;;;;5101853;28;20300;-44
2023/10/22 05:51:27;;;;;;;2.93;1.07;;;8.60;99.90;;;;;;5071913;27;20354;-48
2023/10/22 05:53:54;;;;;;;2.07;1.33;;;8.60;99.90;;;;;;5103824;28;20200;-44
2023/10/22 05:56:23;;;;;;;7.27;1.63;;;8.60;99.90;;;;;;5102605;28;20197;-47
2023/10/22 05:58:51;;;;;;;2.43;1.23;;;8.60;99.90;;;;;;5103235;28;20204;-48
2023/10/22 06:01:19;;;;;;;2.07;1.30;;;8.60;99.90;;;;;;5104783;27;20217;-46
2023/10/22 06:03:45;;;;;;;3.37;1.47;;;8.60;99.90;;;;;;5104676;28;20564;-47
2023/10/22 06:06:12;;;;;;;1.53;1.40;;;8.50;99.90;;;;;;5100548;28;20221;-45
2023/10/22 06:08:39;;;;;;;3.67;1.40;;;8.50;99.90;;;;;;5071837;27;20205;-48
2023/10/22 06:11:06;;;;;;;4.53;1.30;;;8.50;99.90;;;;;;5102103;27;20290;-46
2023/10/22 06:13:33;;;;;;;4.07;1.20;;;8.50;99.90;;;;;;5104280;28;20212;-49
2023/10/22 06:16:02;;;;;;;4.00;1.27;;;8.50;99.90;;;;;;5100673;28;20286;-43
2023/10/22 06:18:29;;;;;;;2.30;1.30;;;8.50;99.90;;;;;;5105854;27;20198;-46
2023/10/22 06:20:56;;;;;;;1.97;1.27;;;8.50;99.90;;;;;;5102457;28;20242;-46
2023/10/22 06:23:23;;;;;;;3.63;1.40;;;8.50;99.90;;;;;;5072690;28;20953;-49
2023/10/22 06:25:50;;;;;;;1.33;1.23;;;8.50;99.90;;;;;;5089578;28;20226;-50
2023/10/22 06:28:17;;;;;;;4.23;1.07;;;8.50;99.90;;;;;;5103768;28;20278;-49
2023/10/22 06:30:44;;;;;;;1.20;1.10;;;8.50;99.90;;;;;;5098622;28;20236;-46
2023/10/22 06:33:12;;;;;;;5.30;1.20;;;8.50;99.90;;;;;;5094794;28;20239;-50
2023/10/22 06:35:39;;;;;;;6.33;1.77;;;8.60;99.90;;;;;;5100896;28;20205;-45
2023/10/22 06:38:06;;;;;;;3.13;1.33;;;8.60;99.90;;;;;;5070413;27;20208;-50
2023/10/22 06:40:35;;;;;;;2.90;1.30;;;8.60;99.90;;;;;;5102688;28;20663;-50
2023/10/22 06:43:02;;;;;;;3.33;0.93;;;8.70;99.90;;;;;;5102006;28;20205;-50
2023/10/22 06:45:29;;;;;;;4.07;1.47;;;8.70;99.90;;;;;;5102598;28;20221;-45
2023/10/22 06:47:56;;;;;;;5.57;1.30;;;8.80;99.90;;;;;;5089861;28;20225;-48
2023/10/22 06:50:25;;;;;;;2.00;1.10;;;8.80;99.90;;;;;;5104114;28;20723;-49
2023/10/22 06:52:52;;;;;;;2.70;1.73;;;8.90;99.90;;;;;;5099818;28;20597;-48
2023/10/22 06:55:19;;;;;;;1.83;1.33;;;8.90;99.90;;;;;;5072895;28;20202;-47
2023/10/22 06:57:46;;;;;;;4.50;1.30;;;9.00;99.90;;;;;;5098906;28;20190;-45
2023/10/22 07:00:14;;;;;;;2.47;1.40;;;9.10;99.90;;;;;;5102422;28;20255;-49
2023/10/22 07:02:41;;;;;;;2.73;1.20;;;9.20;99.90;;;;;;5092603;28;20564;-45
2023/10/22 07:05:10;;;;;;;4.67;1.23;;;9.30;99.90;;;;;;5101741;28;20225;-45
2023/10/22 07:07:41;;;;;;;3.60;1.23;;;9.30;99.90;;;;;;5100622;28;20200;-46
2023/10/22 07:10:09;;;;;;;3.53;1.50;;;9.40;99.90;;;;;;5069840;27;20233;-46
2023/10/22 07:12:36;;;;;;;1.97;1.10;;;9.50;99.90;;;;;;5102452;27;20871;-45
2023/10/22 07:15:03;;;;;;;2.57;1.30;;;9.60;99.90;;;;;;5104434;27;20186;-48
2023/10/22 07:17:30;;;;;;;5.03;1.27;;;9.70;99.90;;;;;;5103438;27;20250;-43
2023/10/22 07:19:56;;;;;;;2.13;1.10;;;9.70;99.90;;;;;;5090266;28;20201;-49
2023/10/22 07:22:23;;;;;;;2.93;1.20;;;9.80;99.90;;;;;;5103143;28;20702;-50
2023/10/22 07:24:52;;;;;;;3.97;1.23;;;9.80;99.90;;;;;;5098937;28;20217;-49
2023/10/22 07:27:18;;;;;;;4.17;1.10;;;9.80;99.90;;;;;;5065505;28;20213;-48
2023/10/22 07:29:45;;;;;;;5.57;1.20;;;9.90;99.90;;;;;;5099007;28;20181;-52
2023/10/22 07:32:12;;;;;;;3.40;1.13;;;9.80;99.90;;;;;;5102905;28;20278;-47
2023/10/22 07:34:40;;;;;;;3.50;1.57;;;9.90;99.90;;;;;;5091099;28;20201;-46
2023/10/22 07:37:07;;;;;;;3.13;1.17;;;9.90;99.90;;;;;;5101937;28;20201;-48
2023/10/22 07:39:34;;;;;;;1.63;1.10;;;10.00;99.90;;;;;;5101042;28;20640;-46
2023/10/22 07:42:02;;;;;;;1.80;1.20;;;10.00;99.90;;;;;;5054581;27;20285;-46
2023/10/22 07:44:29;;;;;;;1.30;1.00;;;10.10;99.90;;;;;;5099275;28;20197;-46
2023/10/22 07:46:55;;;;;;;2.00;0.67;;;10.10;99.90;;;;;;5098051;28;20894;-47
2023/10/22 07:49:22;;;;;;;2.57;0.87;;;10.20;99.90;;;;;;5091639;28;20208;-47
2023/10/22 07:51:49;;;;;;;2.37;1.00;;;10.20;99.90;;;;;;5098378;28;20274;-49
2023/10/22 07:54:16;;;;;;;3.83;1.73;;;10.30;99.90;;;;;;5102907;28;20197;-45
2023/10/22 07:56:42;;;;;;;3.00;1.27;;;10.40;99.90;;;;;;5100136;27;20285;-45
2023/10/22 07:59:11;;;;;;;6.57;1.30;;;10.40;99.90;;;;;;5069500;28;20237;-51
2023/10/22 08:01:37;;;;;;;3.80;1.10;;;10.40;99.90;;;;;;5099748;28;20259;-45
2023/10/22 08:04:05;;;;;;;3.37;1.30;;;10.40;99.90;;;;;;5091439;28;21340;-48
2023/10/22 08:06:32;;;;;;;4.67;1.43;;;10.50;99.90;;;;;;5098136;28;20906;-47
2023/10/22 08:08:58;;;;;;;4.33;1.00;;;10.50;99.90;;;;;;5101218;28;20623;-51
2023/10/22 08:11:25;;;;;;;1.70;0.83;;;10.50;99.90;;;;;;5098408;28;20800;-47
2023/10/22 08:13:52;;;;;;;3.10;1.30;;;10.50;99.90;;;;;;5070242;28;20329;-54
2023/10/22 08:16:20;;;;;;;0.83;0.80;;;10.50;99.90;;;;;;5100089;28;20201;-44
2023/10/22 08:18:47;;;;;;;1.57;1.27;;;10.60;99.90;;;;;;5102088;28;20189;-52
2023/10/22 08:21:14;;;;;;;2.73;1.10;;;10.60;99.90;;;;;;5089780;28;20225;-47
2023/10/22 08:23:41;;;;;;;1.77;1.23;;;10.60;99.90;;;;;;5101224;28;20204;-46
2023/10/22 08:26:08;;;;;;;3.37;1.07;;;10.70;99.90;;;;;;5100881;28;20217;-48
2023/10/22 08:28:35;;;;;;;2.27;1.10;;;10.70;99.90;;;;;;5070120;28;20920;-47
2023/10/22 08:31:02;;;;;;;3.10;1.03;;;10.70;99.90;;;;;;5108935;28;20193;-50
2023/10/22 08:33:31;;;;;;;1.93;1.50;;;10.80;99.90;;;;;;5098635;28;20520;-48
2023/10/22 08:36:04;;;;;;;3.77;1.10;;;10.80;99.90;;;;;;5093267;28;20652;-46
2023/10/22 08:38:32;;;;;;;9.93;1.13;;;10.80;99.90;;;;;;5099948;28;20189;-49
2023/10/22 08:41:01;;;;;;;3.00;1.00;;;10.90;99.90;;;;;;5102926;28;20190;-48
2023/10/22 08:43:32;;;;;;;1.53;1.37;;;10.90;99.90;;;;;;5066108;28;20202;-50
2023/10/22 08:45:59;;;;;;;2.50;1.10;;;10.90;99.90;;;;;;5101769;28;20219;-47
2023/10/22 08:48:26;;;;;;;2.80;1.07;;;10.90;99.90;;;;;;5098928;28;20197;-49
2023/10/22 08:50:57;;;;;;;3.27;1.20;;;11.00;99.90;;;;;;5093010;28;20202;-52
2023/10/22 08:53:24;;;;;;;2.33;1.20;;;11.10;99.90;;;;;;5087870;28;20254;-48
2023/10/22 08:55:51;;;;;;;4.90;1.60;;;11.10;99.90;;;;;;5101775;28;20197;-44
2023/10/22 08:58:20;;;;;;;2.77;1.73;;;11.10;99.90;;;;;;5101119;28;20213;-45
2023/10/22 09:00:48;;;;;;;5.03;1.77;;;11.20;99.90;;;;;;5067942;28;20734;-48
2023/10/22 09:03:16;;;;;;;3.07;1.50;;;11.30;99.90;;;;;;5099205;28;20217;-50
2023/10/22 09:05:43;;;;;;;2.57;1.10;;;11.30;99.90;;;;;;5102317;28;20274;-48
2023/10/22 09:08:12;;;;;;;1.50;1.27;;;11.40;99.90;;;;;;5091757;28;20246;-48
2023/10/22 09:10:38;;;;;;;3.27;1.23;;;11.40;99.90;;;;;;5105555;28;20246;-47
2023/10/22 09:13:13;;;;;;;6.00;1.07;;;11.40;99.90;;;;;;5101358;28;20274;-48
2023/10/22 09:15:42;;;;;;;2.17;1.17;;;11.50;99.90;;;;;;5073825;27;20273;-47
2023/10/22 09:18:09;;;;;;;5.00;1.43;;;11.50;99.90;;;;;;5108401;27;20197;-47
2023/10/22 09:20:36;;;;;;;5.53;1.20;;;11.50;99.90;;;;;;5104659;27;20254;-48
2023/10/22 09:23:17;;;;;;;5.27;1.20;;;11.50;99.90;;;;;;5093372;27;20633;-47
2023/10/22 09:25:45;;;;;;;1.90;0.90;;;11.50;99.90;;;;;;5104349;28;20220;-49
2023/10/22 09:28:20;;;;;;;4.47;1.20;;;11.50;99.90;;;;;;5102668;27;20915;-50
2023/10/22 09:30:47;;;;;;;5.13;1.17;;;11.60;99.90;;;;;;5102227;27;20616;-49
2023/10/22 09:33:17;;;;;;;2.30;1.00;;;11.60;99.90;;;;;;5075525;28;20913;-48
2023/10/22 09:35:59;;;;;;;3.40;1.13;;;11.60;99.90;;;;;;5105177;28;20193;-47
2023/10/22 09:38:47;;;;;;;4.50;0.80;;;11.60;99.90;;;;;;5111982;27;20205;-46
2023/10/22 09:41:14;;;;;;;4.50;1.27;;;11.60;99.90;;;;;;5101240;27;20209;-50
2023/10/22 09:43:41;;;;;;;3.97;1.10;;;11.70;99.90;;;;;;5105918;28;20238;-51
2023/10/22 09:46:08;;;;;;;1.90;1.20;;;11.70;99.90;;;;;;5101325;27;20249;-49
2023/10/22 09:48:36;;;;;;;2.90;1.70;;;11.70;99.90;;;;;;5082525;27;20204;-49
2023/10/22 09:51:06;;;;;;;1.13;0.83;;;11.70;99.90;;;;;;5101301;27;20281;-48
2023/10/22 09:53:40;;;;;;;1.80;1.27;;;11.70;99.90;;;;;;5096129;28;20197;-49
2023/10/22 09:56:11;;;;;;;3.50;1.03;;;11.70;99.90;;;;;;5101286;27;20867;-48
2023/10/22 09:58:43;;;;;;;2.93;1.17;;;11.70;99.90;;;;;;5105164;27;20197;-49
2023/10/22 10:01:11;;;;;;;6.77;1.20;;;11.70;99.90;;;;;;5100714;28;20930;-48
2023/10/22 10:03:39;;;;;;;3.50;1.10;;;11.70;99.90;;;;;;5071954;27;20255;-49
2023/10/22 10:06:07;;;;;;;5.00;1.00;;;11.80;99.90;;;;;;5107284;27;20282;-47
2023/10/22 10:08:36;;;;;;;4.50;1.13;;;11.80;99.90;;;;;;5095940;27;20208;-49
2023/10/22 10:11:03;;;;;;;1.93;1.00;;;11.80;99.90;;;;;;5099807;28;20197;-46
2023/10/22 10:13:32;;;;;;;3.07;1.97;;;11.80;99.90;;;;;;5105331;27;20197;-46
2023/10/22 10:16:01;;;;;;;2.40;1.47;;;11.90;99.90;;;;;;5101931;27;20210;-47
2023/10/22 10:19:07;;;;;;;1.93;1.30;;;11.90;99.90;;;;;;5099109;28;20210;-47
2023/10/22 10:21:45;;;;;;;2.67;1.30;;;11.90;99.90;;;;;;5099084;28;20579;-47
2023/10/22 10:24:30;;;;;;;3.30;1.20;;;11.80;99.90;;;;;;5096382;28;20891;-46
2023/10/22 10:27:25;;;;;;;2.83;1.30;;;11.80;99.90;;;;;;5103184;27;20220;-48
2023/10/22 10:30:20;;;;;;;2.80;1.67;;;11.80;99.90;;;;;;5104270;27;20246;-46
2023/10/22 10:32:50;;;;;;;1.77;1.67;;;11.80;99.90;;;;;;5105330;27;21462;-46
2023/10/22 10:35:19;;;;;;;1.40;1.30;;;11.80;99.90;;;;;;5088865;28;20216;-45
2023/10/22 10:38:21;;;;;;;3.63;1.43;;;11.80;99.90;;;;;;5114995;27;20204;-50
2023/10/22 10:40:48;;;;;;;1.67;1.57;;;11.80;99.90;;;;;;5109381;27;20895;-48
2023/10/22 10:43:16;;;;;;;2.53;1.50;;;11.80;99.90;;;;;;5099537;28;20271;-45
2023/10/22 10:46:16;;;;;;;3.30;1.60;;;11.80;99.90;;;;;;5107614;27;20300;-45
2023/10/22 10:48:47;;;;;;;5.83;1.63;;;11.80;99.90;;;;;;5106646;27;20193;-46
2023/10/22 10:51:18;;;;;;;2.17;1.40;;;11.80;99.90;;;;;;5082818;27;20225;-46
2023/10/22 10:54:17;;;;;;;2.70;2.07;;;11.80;99.90;;;;;;5099315;28;20212;-48
2023/10/22 10:56:56;;;;;;;1.90;1.50;;;11.90;99.90;;;;;;5106048;27;20264;-48
2023/10/22 10:59:30;;;;;;;1.70;1.50;;;11.90;99.90;;;;;;5097533;28;20268;-46
2023/10/22 11:02:02;;;;;;;1.50;1.33;;;11.90;99.90;;;;;;5100881;27;20217;-44
2023/10/22 11:04:31;;;;;;;2.70;1.30;;;11.90;99.90;;;;;;5107455;27;20536;-46
2023/10/22 11:06:58;;;;;;;3.03;1.33;;;11.90;99.90;;;;;;5090423;27;20691;-43
2023/10/22 11:09:25;;;;;;;4.60;1.87;;;11.90;99.90;;;;;;5095394;28;20205;-43
2023/10/22 11:11:59;;;;;;;2.00;1.50;;;11.90;99.90;;;;;;5102183;28;20213;-46
2023/10/22 11:14:26;;;;;;;1.40;1.30;;;11.90;99.90;;;;;;5101381;27;20196;-45
2023/10/22 11:16:55;;;;;;;2.57;1.63;;;11.90;99.90;;;;;;5101954;28;20193;-44
2023/10/22 11:19:23;;;;;;;2.50;1.57;;;11.90;99.90;;;;;;5103590;27;20196;-43
2023/10/22 11:21:54;;;;;;;2.60;1.80;;;11.90;99.90;;;;;;5094723;28;20266;-50
2023/10/22 11:24:22;;;;;;;2.27;1.60;;;11.90;99.90;;;;;;5086349;27;20204;-51
2023/10/22 11:26:51;;;;;;;3.20;1.50;;;12.00;99.90;;;;;;5102941;28;20679;-47
2023/10/22 11:29:18;;;;;;;2.30;1.60;;;12.00;99.90;;;;;;5101602;28;20197;-46
2023/10/22 11:31:57;;;;;;;3.10;1.60;;;12.00;99.90;;;;;;5103615;27;20290;-50
2023/10/22 11:34:24;;;;;;;1.93;1.70;;;12.00;99.90;;;;;;5103040;27;20185;-50
2023/10/22 11:36:58;;;;;;;2.50;1.77;;;12.00;99.90;;;;;;5099148;27;20297;-50
2023/10/22 11:39:33;;;;;;;2.10;1.90;;;12.00;99.90;;;;;;5095227;28;20298;-48
2023/10/22 11:41:59;;;;;;;2.70;1.53;;;12.10;99.90;;;;;;5097878;27;20212;-47
2023/10/22 11:44:31;;;;;;;1.53;1.43;;;12.10;99.90;;;;;;5104273;27;20194;-47
2023/10/22 11:46:58;;;;;;;2.37;1.93;;;12.00;99.90;;;;;;5099318;28;20219;-47
2023/10/22 11:49:25;;;;;;;2.93;2.20;;;12.10;99.90;;;;;;5099509;28;20205;-46
2023/10/22 11:51:53;;;;;;;2.80;2.00;;;12.10;99.90;;;;;;5096529;27;20209;-46
2023/10/22 11:54:36;;;;;;;4.53;2.00;;;12.10;99.90;;;;;;5100248;27;20292;-44
2023/10/22 11:57:03;;;;;;;3.27;1.80;;;12.20;99.90;;;;;;5094809;27;20554;-46
2023/10/22 11:59:31;;;;;;;2.53;1.80;;;12.20;99.90;;;;;;5104733;27;20201;-43
2023/10/22 12:01:57;;;;;;;3.83;2.00;;;12.20;99.90;;;;;;5099880;28;20226;-44
2023/10/22 12:04:24;;;;;;;1.90;1.80;;;12.30;99.90;;;;;;5100229;27;20189;-48
2023/10/22 12:06:52;;;;;;;3.33;1.73;;;12.30;99.90;;;;;;5097320;28;20303;-48
2023/10/22 12:09:18;;;;;;;1.70;1.60;;;12.30;99.90;;;;;;5094241;28;20914;-45
2023/10/22 12:11:47;;;;;;;3.40;2.00;;;12.30;99.90;;;;;;5094201;28;20214;-44
2023/10/22 12:14:13;;;;;;;3.87;2.27;;;12.40;99.90;;;;;;5101417;28;20189;-45
2023/10/22 12:16:40;;;;;;;3.53;1.97;;;12.40;99.90;;;;;;5103132;28;20760;-46
2023/10/22 12:19:07;;;;;;;3.97;2.23;;;12.40;99.90;;;;;;5100588;28;20181;-43
2023/10/22 12:21:34;;;;;;;2.13;2.03;;;12.50;99.90;;;;;;5103024;28;20213;-47
2023/10/22 12:24:00;;;;;;;2.00;1.90;;;12.50;99.90;;;;;;5088073;28;20288;-43
2023/10/22 12:26:27;;;;;;;2.97;2.00;;;12.50;99.90;;;;;;5095439;28;20214;-44
2023/10/22 12:28:55;;;;;;;3.83;1.83;;;12.50;99.90;;;;;;5100457;28;20213;-47
2023/10/22 12:31:22;;;;;;;4.43;1.90;;;12.50;99.90;;;;;;5100008;28;20870;-46
2023/10/22 12:33:49;;;;;;;4.00;2.23;;;12.60;99.90;;;;;;5102165;28;20250;-44
2023/10/22 12:36:16;;;;;;;3.80;1.83;;;12.60;99.90;;;;;;5101144;28;20193;-43
2023/10/22 12:38:42;;;;;;;2.93;1.63;;;12.60;99.90;;;;;;5090434;28;20205;-43
2023/10/22 12:41:09;;;;;;;5.57;2.40;;;12.60;99.90;;;;;;5098778;28;20863;-42
2023/10/22 12:43:36;;;;;;;2.23;1.53;;;12.60;99.90;;;;;;5093139;28;20794;-44
2023/10/22 12:46:04;;;;;;;2.50;1.57;;;12.60;99.90;;;;;;5103807;27;20185;-51
2023/10/22 12:48:31;;;;;;;3.40;2.00;;;12.70;99.90;;;;;;5108118;27;20254;-43
2023/10/22 12:50:58;;;;;;;4.17;2.03;;;12.70;99.90;;;;;;5104726;27;20189;-51
2023/10/22 12:53:25;;;;;;;1.60;1.50;;;12.70;99.90;;;;;;5105065;28;20349;-46
2023/10/22 12:55:55;;;;;;;2.83;1.83;;;12.70;99.90;;;;;;5079167;27;20675;-47
2023/10/22 12:58:22;;;;;;;1.63;1.40;;;12.80;99.90;;;;;;5096685;27;20267;-45
2023/10/22 13:00:50;;;;;;;2.50;1.33;;;12.90;99.90;;;;;;5114412;27;20197;-50